createdAt,value
2022-10-22T00:00:14.751Z,14.07
2022-10-22T00:02:43.078Z,14.10
2022-10-22T00:05:10.898Z,14.22
2022-10-22T00:07:38.641Z,13.99
2022-10-22T00:10:07.657Z,13.97
2022-10-22T00:12:35.082Z,14.09
2022-10-22T00:15:03.301Z,14.21
2022-10-22T00:17:30.846Z,14.18
2022-10-22T00:19:58.106Z,14.14
2022-10-22T00:22:25.372Z,14.16
2022-10-22T00:24:52.922Z,14.09
2022-10-22T00:27:20.211Z,14.17
2022-10-22T00:29:47.999Z,14.23
2022-10-22T00:32:15.613Z,14.21
2022-10-22T00:34:42.975Z,14.21
2022-10-22T00:37:10.262Z,14.30
2022-10-22T00:39:38.004Z,14.22
2022-10-22T00:42:05.336Z,14.24
2022-10-22T00:44:58.416Z,14.27
2022-10-22T00:47:28.624Z,14.21
2022-10-22T00:49:56.341Z,14.23
2022-10-22T00:52:23.755Z,14.34
2022-10-22T00:54:52.043Z,14.29
2022-10-22T00:57:20.368Z,14.18
2022-10-22T00:59:48.280Z,14.24
2022-10-22T01:02:16.221Z,14.13
2022-10-22T01:04:43.577Z,14.17
2022-10-22T01:07:18.182Z,14.23
2022-10-22T01:10:04.300Z,14.10
2022-10-22T01:12:42.078Z,14.22
2022-10-22T01:16:11.776Z,14.08
2022-10-22T01:18:58.293Z,14.13
2022-10-22T01:21:34.747Z,14.16
2022-10-22T01:24:12.012Z,14.05
2022-10-22T01:26:57.437Z,14.10
2022-10-22T01:29:26.366Z,14.02
2022-10-22T01:32:00.723Z,14.00
2022-10-22T01:34:29.302Z,13.89
2022-10-22T01:36:57.885Z,13.92
2022-10-22T01:39:27.311Z,14.08
2022-10-22T01:41:56.196Z,13.94
2022-10-22T01:44:27.934Z,13.93
2022-10-22T01:47:30.464Z,13.94
2022-10-22T01:50:17.051Z,13.93
2022-10-22T01:52:54.694Z,13.89
2022-10-22T01:55:30.323Z,14.02
2022-10-22T01:58:07.624Z,14.01
2022-10-22T02:00:38.119Z,14.07
2022-10-22T02:03:22.777Z,13.85
2022-10-22T02:06:04.414Z,13.90
2022-10-22T02:08:33.766Z,14.16
2022-10-22T02:11:01.521Z,14.04
2022-10-22T02:13:36.805Z,13.85
2022-10-22T02:16:07.112Z,14.04
2022-10-22T02:18:38.768Z,13.85
2022-10-22T02:23:39.287Z,13.88
2022-10-22T02:26:31.663Z,13.89
2022-10-22T02:29:22.262Z,13.90
2022-10-22T02:31:51.073Z,13.98
2022-10-22T02:34:22.542Z,13.93
2022-10-22T02:36:50.703Z,13.71
2022-10-22T02:39:19.234Z,13.72
2022-10-22T02:41:46.556Z,13.74
2022-10-22T02:44:14.454Z,13.72
2022-10-22T02:46:43.071Z,13.68
2022-10-22T02:49:10.359Z,13.72
2022-10-22T02:51:37.927Z,13.68
2022-10-22T02:54:05.568Z,13.61
2022-10-22T02:56:32.975Z,13.62
2022-10-22T02:59:00.511Z,13.53
2022-10-22T03:01:27.794Z,13.44
2022-10-22T03:03:55.084Z,13.54
2022-10-22T03:06:22.691Z,13.64
2022-10-22T03:08:50.153Z,13.54
2022-10-22T03:11:17.504Z,13.46
2022-10-22T03:13:45.047Z,13.36
2022-10-22T03:16:12.383Z,13.36
2022-10-22T03:18:39.659Z,13.36
2022-10-22T03:21:13.961Z,13.25
2022-10-22T03:23:42.103Z,13.23
2022-10-22T03:26:10.759Z,13.21
2022-10-22T03:28:39.984Z,13.19
2022-10-22T03:31:07.335Z,13.15
2022-10-22T03:33:34.912Z,12.96
2022-10-22T03:36:02.508Z,12.91
2022-10-22T03:38:30.067Z,13.07
2022-10-22T03:40:57.713Z,13.02
2022-10-22T03:43:25.104Z,12.84
2022-10-22T03:45:52.449Z,12.89
2022-10-22T03:48:20.126Z,13.04
2022-10-22T03:50:47.418Z,12.88
2022-10-22T03:53:14.694Z,12.86
2022-10-22T03:55:42.380Z,12.62
2022-10-22T03:58:09.716Z,12.76
2022-10-22T04:00:37.080Z,12.82
2022-10-22T04:03:04.636Z,12.80
2022-10-22T04:05:34.843Z,12.59
2022-10-22T04:08:02.125Z,12.67
2022-10-22T04:10:29.750Z,12.74
2022-10-22T04:12:57.047Z,12.70
2022-10-22T04:15:26.800Z,12.56
2022-10-22T04:17:54.752Z,12.58
2022-10-22T04:20:22.038Z,12.55
2022-10-22T04:22:49.379Z,12.64
2022-10-22T04:25:16.926Z,12.59
2022-10-22T04:27:44.235Z,12.46
2022-10-22T04:30:12.061Z,12.53
2022-10-22T04:32:39.620Z,12.56
2022-10-22T04:35:07.339Z,12.57
2022-10-22T04:37:34.664Z,12.56
2022-10-22T04:40:02.222Z,12.63
2022-10-22T04:42:29.535Z,12.57
2022-10-22T04:44:56.859Z,12.53
2022-10-22T04:47:24.523Z,12.61
2022-10-22T04:49:51.832Z,12.35
2022-10-22T04:52:19.171Z,12.37
2022-10-22T04:54:46.955Z,12.42
2022-10-22T04:57:14.514Z,12.44
2022-10-22T04:59:41.845Z,12.31
2022-10-22T05:02:09.406Z,12.46
2022-10-22T05:04:36.690Z,12.46
2022-10-22T05:07:03.963Z,12.22
2022-10-22T05:09:31.512Z,12.21
2022-10-22T05:11:58.827Z,12.32
2022-10-22T05:14:26.208Z,12.31
2022-10-22T05:16:54.194Z,12.33
2022-10-22T05:19:24.350Z,12.37
2022-10-22T05:21:53.038Z,12.39
2022-10-22T05:24:20.987Z,12.27
2022-10-22T05:26:52.426Z,12.24
2022-10-22T05:29:20.372Z,12.24
2022-10-22T05:31:47.920Z,12.21
2022-10-22T05:34:15.498Z,12.29
2022-10-22T05:36:42.974Z,12.35
2022-10-22T05:39:10.576Z,12.34
2022-10-22T05:41:37.879Z,12.22
2022-10-22T05:44:05.512Z,12.23
2022-10-22T05:46:35.236Z,12.29
2022-10-22T05:49:05.109Z,12.31
2022-10-22T05:51:34.918Z,12.17
2022-10-22T05:54:04.250Z,12.34
2022-10-22T05:56:32.292Z,12.31
2022-10-22T05:59:00.616Z,12.39
2022-10-22T06:01:29.844Z,12.37
2022-10-22T06:03:59.940Z,12.39
2022-10-22T06:06:36.815Z,12.53
2022-10-22T06:09:10.396Z,12.58
2022-10-22T06:11:37.971Z,12.46
2022-10-22T06:14:05.532Z,12.40
2022-10-22T06:16:32.952Z,12.55
2022-10-22T06:19:03.610Z,12.71
2022-10-22T06:21:31.561Z,12.73
2022-10-22T06:24:00.231Z,12.70
2022-10-22T06:26:27.930Z,12.83
2022-10-22T06:28:56.722Z,12.87
2022-10-22T06:31:25.587Z,13.07
2022-10-22T06:33:52.954Z,13.20
2022-10-22T06:36:23.368Z,13.23
2022-10-22T06:38:54.825Z,13.30
2022-10-22T06:41:25.781Z,13.44
2022-10-22T06:43:57.523Z,13.35
2022-10-22T06:46:26.149Z,13.48
2022-10-22T06:48:59.363Z,13.67
2022-10-22T06:51:28.025Z,13.80
2022-10-22T06:53:56.226Z,14.09
2022-10-22T06:56:25.833Z,13.99
2022-10-22T06:58:54.948Z,14.08
2022-10-22T07:01:28.699Z,14.39
2022-10-22T07:03:56.712Z,14.48
2022-10-22T07:06:25.675Z,14.68
2022-10-22T07:08:54.872Z,14.74
2022-10-22T07:11:25.486Z,14.74
2022-10-22T07:13:55.780Z,14.85
2022-10-22T07:16:28.044Z,15.06
2022-10-22T07:18:58.561Z,14.86
2022-10-22T07:21:26.184Z,14.80
2022-10-22T07:23:53.562Z,14.75
2022-10-22T07:26:20.952Z,14.84
2022-10-22T07:28:48.639Z,15.08
2022-10-22T07:31:16.720Z,15.03
2022-10-22T07:33:44.280Z,15.03
2022-10-22T07:36:17.480Z,15.07
2022-10-22T07:38:49.538Z,15.28
2022-10-22T07:41:17.281Z,15.81
2022-10-22T07:43:44.875Z,15.84
2022-10-22T07:46:12.232Z,15.87
2022-10-22T07:48:39.835Z,16.08
2022-10-22T07:51:07.206Z,16.38
2022-10-22T07:53:35.021Z,16.61
2022-10-22T07:56:02.570Z,16.59
2022-10-22T07:58:30.046Z,16.54
2022-10-22T08:01:00.720Z,16.60
2022-10-22T08:03:29.120Z,16.61
2022-10-22T08:05:56.448Z,16.76
2022-10-22T08:08:27.076Z,16.69
2022-10-22T08:10:58.960Z,16.95
2022-10-22T08:13:27.402Z,17.11
2022-10-22T08:15:57.377Z,16.81
2022-10-22T08:18:25.893Z,17.09
2022-10-22T08:20:53.402Z,17.25
2022-10-22T08:23:24.476Z,17.51
2022-10-22T08:25:57.193Z,17.78
2022-10-22T08:28:24.760Z,17.98
2022-10-22T08:30:52.043Z,17.96
2022-10-22T08:33:19.673Z,18.03
2022-10-22T08:35:51.568Z,18.12
2022-10-22T08:38:19.259Z,18.03
2022-10-22T08:40:50.297Z,17.87
2022-10-22T08:43:36.536Z,17.95
2022-10-22T08:46:17.012Z,17.62
2022-10-22T08:48:56.033Z,17.76
2022-10-22T08:51:26.602Z,17.79
2022-10-22T08:54:13.735Z,17.54
2022-10-22T08:56:44.560Z,17.64
2022-10-22T08:59:27.336Z,17.53
2022-10-22T09:01:54.896Z,17.51
2022-10-22T09:04:36.753Z,17.63
2022-10-22T09:07:04.355Z,17.57
2022-10-22T09:09:35.161Z,17.67
2022-10-22T09:12:04.285Z,17.67
2022-10-22T09:14:32.306Z,17.44
2022-10-22T09:17:21.714Z,17.46
2022-10-22T09:20:09.116Z,17.50
2022-10-22T09:23:00.861Z,17.63
2022-10-22T09:25:33.011Z,17.58
2022-10-22T09:28:00.294Z,17.69
2022-10-22T09:30:31.663Z,17.59
2022-10-22T09:33:09.488Z,17.67
2022-10-22T09:35:45.359Z,17.81
2022-10-22T09:38:15.304Z,17.67
2022-10-22T09:40:44.331Z,17.54
2022-10-22T09:43:13.825Z,17.55
2022-10-22T09:45:42.538Z,17.50
2022-10-22T09:48:12.135Z,17.49
2022-10-22T09:50:48.097Z,17.65
2022-10-22T09:53:22.866Z,17.66
2022-10-22T09:55:52.997Z,17.55
2022-10-22T09:58:20.988Z,17.78
2022-10-22T10:00:56.624Z,17.69
2022-10-22T10:03:26.598Z,17.96
2022-10-22T10:05:58.072Z,17.80
2022-10-22T10:08:27.614Z,17.88
2022-10-22T10:11:04.019Z,18.09
2022-10-22T10:13:43.761Z,18.10
2022-10-22T10:16:24.180Z,17.96
2022-10-22T10:18:51.610Z,18.05
2022-10-22T10:21:21.729Z,17.89
2022-10-22T10:24:05.848Z,18.05
2022-10-22T10:26:56.407Z,17.91
2022-10-22T10:29:46.143Z,17.86
2022-10-22T10:32:26.065Z,18.05
2022-10-22T10:35:11.413Z,18.05
2022-10-22T10:37:46.391Z,18.01
2022-10-22T10:40:33.352Z,18.02
2022-10-22T10:43:09.802Z,18.04
2022-10-22T10:45:58.324Z,18.11
2022-10-22T10:48:35.060Z,18.17
2022-10-22T10:51:46.257Z,18.42
2022-10-22T10:54:19.298Z,18.40
2022-10-22T10:56:58.568Z,18.36
2022-10-22T10:59:39.211Z,18.19
2022-10-22T11:02:31.597Z,18.48
2022-10-22T11:05:03.546Z,18.59
2022-10-22T11:07:56.153Z,18.38
2022-10-22T11:10:37.343Z,18.24
2022-10-22T11:13:29.494Z,18.30
2022-10-22T11:16:27.348Z,18.18
2022-10-22T11:18:59.892Z,18.30
2022-10-22T11:21:41.961Z,18.42
2022-10-22T11:24:28.627Z,18.35
2022-10-22T11:27:19.383Z,18.45
2022-10-22T11:29:52.536Z,18.75
2022-10-22T11:32:21.331Z,18.50
2022-10-22T11:34:50.968Z,18.59
2022-10-22T11:37:18.728Z,18.64
2022-10-22T11:39:53.706Z,18.69
2022-10-22T11:42:34.468Z,18.81
2022-10-22T11:45:04.529Z,18.84
2022-10-22T11:47:42.826Z,19.02
2022-10-22T11:50:22.791Z,18.83
2022-10-22T11:53:05.475Z,18.93
2022-10-22T11:55:34.520Z,18.99
2022-10-22T11:58:06.772Z,18.89
2022-10-22T12:00:54.544Z,18.89
2022-10-22T12:03:40.908Z,19.07
2022-10-22T12:06:15.637Z,18.97
2022-10-22T12:08:49.320Z,18.94
2022-10-22T12:11:24.224Z,18.83
2022-10-22T12:13:52.523Z,18.90
2022-10-22T12:16:32.202Z,18.97
2022-10-22T12:19:10.296Z,18.91
2022-10-22T12:21:39.181Z,18.93
2022-10-22T12:24:07.033Z,18.99
2022-10-22T12:26:34.895Z,18.76
2022-10-22T12:29:05.956Z,18.80
2022-10-22T12:31:38.359Z,18.69
2022-10-22T12:34:06.360Z,18.71
2022-10-22T12:36:35.763Z,18.83
2022-10-22T12:39:09.016Z,18.84
2022-10-22T12:41:38.381Z,18.88
2022-10-22T12:44:06.011Z,18.78
2022-10-22T12:46:35.051Z,18.72
2022-10-22T12:49:05.415Z,18.68
2022-10-22T12:51:33.156Z,18.71
2022-10-22T12:54:08.488Z,18.75
2022-10-22T12:56:37.302Z,18.85
2022-10-22T12:59:16.796Z,18.84
2022-10-22T13:01:44.528Z,18.81
2022-10-22T13:04:33.427Z,18.60
2022-10-22T13:07:15.957Z,18.61
2022-10-22T13:10:01.045Z,18.53
2022-10-22T13:12:35.510Z,18.47
2022-10-22T13:15:21.058Z,18.51
2022-10-22T13:17:49.772Z,18.65
2022-10-22T13:20:22.156Z,18.55
2022-10-22T13:23:00.931Z,18.31
2022-10-22T13:25:35.538Z,18.46
2022-10-22T13:28:18.347Z,18.31
2022-10-22T13:30:54.295Z,18.28
2022-10-22T13:33:26.393Z,18.40
2022-10-22T13:35:55.774Z,18.28
2022-10-22T13:38:25.239Z,18.43
2022-10-22T13:40:52.577Z,18.43
2022-10-22T13:43:20.448Z,18.50
2022-10-22T13:45:49.251Z,18.42
2022-10-22T13:48:19.146Z,18.54
2022-10-22T13:50:46.691Z,18.34
2022-10-22T13:53:25.682Z,18.33
2022-10-22T13:55:53.383Z,18.21
2022-10-22T13:58:24.626Z,18.37
2022-10-22T14:00:55.756Z,18.32
2022-10-22T14:03:30.425Z,18.22
2022-10-22T14:05:57.828Z,17.95
2022-10-22T14:08:26.526Z,17.90
2022-10-22T14:10:54.204Z,17.92
2022-10-22T14:13:21.542Z,17.80
2022-10-22T14:15:50.778Z,17.98
2022-10-22T14:18:25.574Z,17.91
2022-10-22T14:20:58.395Z,17.95
2022-10-22T14:23:28.702Z,17.58
2022-10-22T14:25:56.822Z,17.74
2022-10-22T14:28:24.159Z,17.71
2022-10-22T14:30:52.400Z,17.78
2022-10-22T14:33:28.807Z,17.93
2022-10-22T14:36:02.282Z,17.78
2022-10-22T14:38:29.802Z,17.54
2022-10-22T14:40:57.652Z,17.80
2022-10-22T14:43:31.007Z,17.59
2022-10-22T14:45:58.579Z,17.56
2022-10-22T14:48:25.881Z,17.57
2022-10-22T14:50:54.548Z,17.70
2022-10-22T14:53:22.118Z,17.76
2022-10-22T14:55:51.435Z,17.71
2022-10-22T14:58:18.781Z,17.74
2022-10-22T15:00:46.379Z,17.74
2022-10-22T15:03:13.771Z,17.68
2022-10-22T15:05:44.290Z,17.75
2022-10-22T15:08:14.177Z,17.71
2022-10-22T15:10:41.814Z,17.61
2022-10-22T15:13:09.479Z,17.39
2022-10-22T15:15:40.267Z,17.59
2022-10-22T15:18:07.655Z,17.54
2022-10-22T15:20:34.955Z,17.44
2022-10-22T15:23:02.602Z,17.39
2022-10-22T15:25:29.922Z,17.35
2022-10-22T15:28:01.808Z,17.38
2022-10-22T15:30:32.405Z,17.10
2022-10-22T15:32:59.695Z,17.20
2022-10-22T15:35:28.542Z,17.01
2022-10-22T15:37:56.279Z,16.95
2022-10-22T15:40:23.583Z,16.80
2022-10-22T15:42:50.862Z,16.82
2022-10-22T15:45:21.228Z,16.70
2022-10-22T15:47:48.991Z,16.74
2022-10-22T15:50:16.924Z,16.52
2022-10-22T15:52:44.526Z,16.56
2022-10-22T15:57:44.547Z,16.65
2022-10-22T16:00:13.744Z,16.63
2022-10-22T16:02:42.605Z,16.38
2022-10-22T16:05:10.057Z,16.42
2022-10-22T16:07:37.404Z,16.39
2022-10-22T16:10:07.554Z,16.32
2022-10-22T16:12:35.975Z,16.35
2022-10-22T16:15:03.623Z,16.40
2022-10-22T16:17:31.173Z,16.03
2022-10-22T16:19:58.500Z,16.26
2022-10-22T16:22:25.802Z,16.18
2022-10-22T16:24:53.366Z,16.30
2022-10-22T16:27:20.901Z,15.94
2022-10-22T16:29:48.233Z,16.08
2022-10-22T16:32:16.753Z,16.06
2022-10-22T16:34:44.059Z,16.05
2022-10-22T16:37:11.380Z,15.90
2022-10-22T16:39:38.990Z,16.00
2022-10-22T16:42:06.462Z,16.10
2022-10-22T16:44:34.037Z,16.10
2022-10-22T16:47:01.628Z,16.08
2022-10-22T16:49:29.001Z,15.96
2022-10-22T16:51:56.353Z,15.99
2022-10-22T16:54:23.964Z,15.98
2022-10-22T16:56:51.281Z,15.90
2022-10-22T16:59:18.849Z,15.93
2022-10-22T17:01:46.415Z,15.97
2022-10-22T17:04:13.719Z,16.07
2022-10-22T17:06:41.068Z,15.95
2022-10-22T17:09:08.771Z,15.86
2022-10-22T17:11:39.158Z,15.97
2022-10-22T17:14:09.090Z,15.93
2022-10-22T17:16:36.575Z,15.92
2022-10-22T17:19:04.350Z,15.88
2022-10-22T17:21:31.965Z,15.86
2022-10-22T17:23:59.296Z,15.83
2022-10-22T17:26:27.939Z,15.94
2022-10-22T17:28:55.565Z,15.99
2022-10-22T17:31:28.099Z,15.89
2022-10-22T17:33:56.382Z,15.96
2022-10-22T17:36:24.696Z,15.80
2022-10-22T17:38:57.460Z,15.80
2022-10-22T17:41:27.888Z,15.70
2022-10-22T17:43:56.311Z,15.86
2022-10-22T17:46:25.261Z,15.83
2022-10-22T17:48:54.922Z,15.57
2022-10-22T17:51:23.480Z,15.80
2022-10-22T17:53:50.835Z,15.78
2022-10-22T17:56:23.157Z,15.79
2022-10-22T17:58:51.036Z,15.86
2022-10-22T18:01:23.003Z,15.80
2022-10-22T18:03:52.193Z,15.77
2022-10-22T18:06:19.703Z,15.85
2022-10-22T18:08:47.173Z,15.69
2022-10-22T18:11:18.103Z,15.70
2022-10-22T18:13:49.627Z,15.59
2022-10-22T18:16:17.796Z,15.63
2022-10-22T18:18:47.194Z,15.67
2022-10-22T18:21:16.015Z,15.79
2022-10-22T18:23:43.635Z,15.56
2022-10-22T18:26:10.923Z,15.61
2022-10-22T18:28:38.302Z,15.79
2022-10-22T18:31:10.820Z,15.76
2022-10-22T18:33:38.158Z,15.58
2022-10-22T18:36:07.907Z,15.59
2022-10-22T18:38:35.425Z,15.70
2022-10-22T18:41:02.735Z,15.76
2022-10-22T18:43:30.324Z,15.50
2022-10-22T18:45:57.646Z,15.56
2022-10-22T18:48:24.992Z,15.55
2022-10-22T18:51:00.923Z,15.44
2022-10-22T18:53:29.673Z,15.32
2022-10-22T18:55:57.336Z,15.29
2022-10-22T18:58:24.656Z,15.45
2022-10-22T19:00:52.028Z,15.36
2022-10-22T19:03:19.668Z,15.39
2022-10-22T19:05:49.829Z,15.33
2022-10-22T19:08:18.142Z,15.38
2022-10-22T19:10:46.804Z,15.45
2022-10-22T19:13:16.072Z,15.39
2022-10-22T19:15:43.495Z,15.16
2022-10-22T19:18:11.326Z,15.25
2022-10-22T19:20:38.946Z,15.11
2022-10-22T19:23:07.400Z,15.18
2022-10-22T19:25:34.975Z,15.11
2022-10-22T19:28:02.311Z,14.96
2022-10-22T19:30:29.854Z,14.90
2022-10-22T19:32:57.485Z,14.80
2022-10-22T19:35:24.776Z,14.53
2022-10-22T19:37:52.215Z,14.66
2022-10-22T19:40:19.995Z,14.78
2022-10-22T19:42:50.348Z,14.46
2022-10-22T19:45:18.212Z,14.58
2022-10-22T19:47:45.818Z,14.74
2022-10-22T19:50:13.147Z,14.56
2022-10-22T19:52:40.779Z,14.73
2022-10-22T19:55:10.034Z,14.50
2022-10-22T19:57:38.811Z,14.51
2022-10-22T20:00:06.817Z,14.45
2022-10-22T20:02:38.166Z,14.58
2022-10-22T20:05:06.251Z,14.52
2022-10-22T20:07:33.746Z,14.59
2022-10-22T20:10:01.057Z,14.47
2022-10-22T20:12:28.607Z,14.58
2022-10-22T20:14:55.982Z,14.60
2022-10-22T20:17:23.305Z,14.52
2022-10-22T20:19:50.924Z,14.51
2022-10-22T20:22:18.930Z,14.40
2022-10-22T20:24:46.352Z,14.45
2022-10-22T20:27:13.994Z,14.55
2022-10-22T20:29:41.364Z,14.46
2022-10-22T20:32:08.954Z,14.54
2022-10-22T20:34:37.147Z,14.51
2022-10-22T20:37:04.438Z,14.45
2022-10-22T20:39:32.054Z,14.42
2022-10-22T20:41:59.724Z,14.40
2022-10-22T20:44:27.059Z,14.47
2022-10-22T20:46:54.723Z,14.38
2022-10-22T20:49:22.329Z,14.33
2022-10-22T20:51:49.644Z,14.36
2022-10-22T20:54:17.568Z,14.35
2022-10-22T20:56:45.349Z,14.32
2022-10-22T20:59:12.742Z,14.34
2022-10-22T21:01:51.244Z,14.32
2022-10-22T21:04:20.260Z,14.12
2022-10-22T21:06:49.820Z,14.32
2022-10-22T21:09:17.234Z,14.33
2022-10-22T21:11:45.195Z,14.36
2022-10-22T21:14:14.529Z,14.20
2022-10-22T21:16:44.248Z,14.19
2022-10-22T21:19:12.037Z,14.22
2022-10-22T21:21:39.355Z,14.22
2022-10-22T21:24:07.078Z,14.31
2022-10-22T21:26:38.824Z,14.28
2022-10-22T21:29:06.535Z,14.36
2022-10-22T21:31:34.123Z,14.25
2022-10-22T21:34:01.877Z,14.23
2022-10-22T21:36:29.163Z,14.08
2022-10-22T21:38:56.707Z,14.11
2022-10-22T21:41:24.429Z,14.15
2022-10-22T21:43:51.790Z,14.01
2022-10-22T21:46:21.903Z,14.27
2022-10-22T21:48:57.552Z,14.12
2022-10-22T21:51:25.649Z,13.98
2022-10-22T21:53:53.632Z,14.01
2022-10-22T21:56:23.667Z,14.16
2022-10-22T21:58:51.000Z,14.05
2022-10-22T22:01:18.768Z,14.02
2022-10-22T22:03:50.716Z,14.13
2022-10-22T22:06:21.421Z,13.87
2022-10-22T22:08:51.763Z,13.99
2022-10-22T22:11:25.015Z,13.87
2022-10-22T22:13:55.727Z,13.77
2022-10-22T22:16:28.802Z,14.06
2022-10-22T22:18:59.283Z,13.83
2022-10-22T22:21:26.677Z,14.02
2022-10-22T22:23:54.255Z,13.89
2022-10-22T22:26:28.626Z,13.83
2022-10-22T22:28:58.483Z,13.56
2022-10-22T22:31:31.013Z,13.54
2022-10-22T22:34:07.145Z,13.61
2022-10-22T22:36:40.033Z,13.67
2022-10-22T22:39:10.377Z,13.66
2022-10-22T22:41:37.978Z,13.43
2022-10-22T22:44:05.644Z,13.59
2022-10-22T22:46:33.035Z,13.57
2022-10-22T22:49:00.610Z,13.72
2022-10-22T22:51:27.940Z,13.36
2022-10-22T22:53:57.993Z,13.64
2022-10-22T22:56:27.973Z,13.70
2022-10-22T22:58:55.735Z,13.65
2022-10-22T23:01:25.948Z,13.73
2022-10-22T23:03:59.176Z,13.87
2022-10-22T23:06:29.431Z,13.64
2022-10-22T23:08:57.791Z,13.80
2022-10-22T23:11:26.371Z,13.68
2022-10-22T23:13:58.845Z,13.63
2022-10-22T23:16:29.021Z,13.47
2022-10-22T23:18:56.915Z,13.85
2022-10-22T23:21:26.980Z,13.67
2022-10-22T23:23:56.757Z,13.79
2022-10-22T23:26:45.243Z,13.95
2022-10-22T23:29:19.467Z,14.04
2022-10-22T23:31:47.791Z,13.87
2022-10-22T23:36:51.611Z,14.00
2022-10-22T23:39:22.187Z,14.19
2022-10-22T23:41:49.869Z,14.25
2022-10-22T23:44:17.229Z,14.30
2022-10-22T23:46:44.867Z,14.48
2022-10-22T23:49:12.247Z,14.52
2022-10-22T23:51:39.928Z,14.58
2022-10-22T23:54:13.054Z,14.47
2022-10-22T23:56:40.745Z,14.59
2022-10-22T23:59:08.839Z,14.58
